Latest Weather Observations for Noarlunga

IDS60901

Issued at 4:31 pm CST Friday 19 April 2019 (issued every 10 minutes, with the page automatically refreshed every 10 minutes)

About weather observations | Map of Adelaide area stations | Latest observations for Adelaide area | Other Formats
Station Details ID: 023885 Name: NOARLUNGA Lat: -35.16 Lon: 138.51 Height: 55.0 m
Data from the previous 72 hours. | See also: Recent months at Noarlunga
Date/Time
CST
Temp
°C
App
Temp
°C
Dew
Point
°C
Rel
Hum
%
Delta-T
°C
Wind Press
QNH
hPa
Press
MSL
hPa
Rain since
9am
mm
Dir  Spd
km/h
Gust
km/h
Spd
kts
Gust
kts
19/04:30pm 30.7 27.6 3.7 18 13.8 N 9 17 5 9 - - 0.0
19/04:00pm 30.5 26.2 3.5 18 13.8 NNW 15 20 8 11 - - 0.0
19/03:30pm 32.3 28.8 3.3 16 14.9 NNW 11 20 6 11 - - 0.0
19/03:00pm 31.7 27.7 2.8 16 14.7 NNW 13 22 7 12 - - 0.0
19/02:30pm 30.7 27.6 3.7 18 13.8 NNW 9 13 5 7 - - 0.0
19/02:00pm 31.3 27.6 4.2 18 14.0 NNW 13 19 7 10 - - 0.0
19/01:30pm 31.6 25.9 2.7 16 14.6 N 22 32 12 17 - - 0.0
19/01:00pm 30.8 26.2 3.8 18 13.9 N 17 26 9 14 - - 0.0
19/12:30pm 30.2 26.0 4.0 19 13.4 N 15 24 8 13 - - 0.0
19/12:00pm 29.8 25.3 4.4 20 13.1 NNE 17 26 9 14 - - 0.0
19/11:30am 29.2 25.0 4.0 20 12.9 N 15 26 8 14 - - 0.0
19/11:00am 29.7 25.6 4.4 20 13.0 NNE 15 24 8 13 - - 0.0
19/10:30am 27.7 22.2 4.1 22 11.9 NNE 22 35 12 19 - - 0.0
19/10:00am 27.4 22.4 4.5 23 11.7 NNE 20 32 11 17 - - 0.0
19/09:30am 26.4 20.9 4.2 24 11.2 NNE 22 41 12 22 - - 0.0
19/09:00am 24.4 19.5 4.2 27 10.0 NNE 19 28 10 15 - - 0.0
19/08:30am 24.4 20.7 4.2 27 10.0 NNE 13 20 7 11 - - 0.0
19/08:00am 21.8 19.6 3.5 30 8.8 NE 4 7 2 4 - - 0.0
19/07:30am 18.3 16.2 1.8 33 7.5 E 2 6 1 3 - - 0.0
19/07:00am 15.9 13.2 0.1 34 6.8 ENE 4 6 2 3 - - 0.0
19/06:30am 16.1 14.0 -0.6 32 7.1 CALM 0 2 0 1 - - 0.0
19/06:00am 17.1 13.0 -0.1 31 7.4 ENE 11 15 6 8 - - 0.0
19/05:30am 16.7 13.8 -0.9 30 7.4 ENE 4 6 2 3 - - 0.0
19/05:00am 17.3 13.9 -0.9 29 7.7 ENE 7 13 4 7 - - 0.0
19/04:30am 17.5 13.3 -1.2 28 7.9 ENE 11 19 6 10 - - 0.0
19/04:00am 17.5 12.1 -1.2 28 7.9 ENE 17 26 9 14 - - 0.0
19/03:30am 17.5 12.1 -1.2 28 7.9 ENE 17 26 9 14 - - 0.0
19/03:00am 17.2 11.8 -1.0 29 7.7 E 17 26 9 14 - - 0.0
19/02:30am 16.9 10.6 -1.2 29 7.6 E 22 33 12 18 - - 0.0
19/02:00am 16.8 10.1 -1.3 29 7.6 ENE 24 37 13 20 - - 0.0
19/01:30am 16.9 9.9 -0.8 30 7.5 E 26 39 14 21 - - 0.0
19/01:00am 17.0 10.0 -0.7 30 7.5 E 26 43 14 23 - - 0.0
19/12:30am 16.7 9.7 -0.5 31 7.3 E 26 39 14 21 - - 0.0
19/12:13am 16.8 9.4 -0.4 31 7.3 E 28 48 15 26 - - 0.0
19/12:00am 17.0 9.7 -0.2 31 7.4 E 28 43 15 23 - - 0.0
 
Date/Time
CST
Temp
°C
App
Temp
°C
Dew
Point
°C
Rel
Hum
%
Delta-T
°C
Wind Press
QNH
hPa
Press
MSL
hPa
Rain since
9am
mm
Dir  Spd
km/h
Gust
km/h
Spd
kts
Gust
kts
18/11:30pm 16.9 9.3 0.5 33 7.1 E 30 48 16 26 - - 0.0
18/11:00pm 16.8 9.3 0.9 34 7.0 ESE 30 52 16 28 - - 0.0
18/10:38pm 16.4 9.5 2.4 39 6.3 ESE 28 50 15 27 - - 0.0
18/10:30pm 16.2 9.4 3.3 42 5.9 ESE 28 43 15 23 - - 0.0
18/10:00pm 15.8 9.9 5.7 51 4.9 ESE 26 43 14 23 - - 0.0
18/09:48pm 15.8 9.6 6.0 52 4.7 ESE 28 46 15 25 - - 0.0
18/09:30pm 15.8 9.6 6.0 52 4.7 ESE 28 37 15 20 - - 0.0
18/09:00pm 15.6 10.2 6.3 54 4.5 ESE 24 37 13 20 - - 0.0
18/08:30pm 15.5 11.0 6.2 54 4.5 ESE 19 28 10 15 - - 0.0
18/08:00pm 15.7 11.0 6.2 53 4.6 ESE 20 32 11 17 - - 0.0
18/07:30pm 15.7 10.6 5.9 52 4.7 ESE 22 33 12 18 - - 0.0
18/07:00pm 15.9 10.3 5.5 50 5.0 SE 24 39 13 21 - - 0.0
18/06:30pm 16.4 10.7 5.1 47 5.4 SE 24 35 13 19 - - 0.0
18/06:00pm 18.6 13.4 -0.2 28 8.2 ESE 17 26 9 14 - - 0.0
18/05:30pm 19.7 14.4 -0.3 26 8.8 ESE 17 28 9 15 - - 0.0
18/05:00pm 20.4 14.9 0.3 26 9.0 ESE 19 28 10 15 - - 0.0
18/04:30pm 20.9 15.7 0.2 25 9.3 ESE 17 26 9 14 - - 0.0
18/04:00pm 21.3 16.2 0.5 25 9.4 ESE 17 28 9 15 - - 0.0
18/03:30pm 21.5 16.4 0.7 25 9.5 E 17 28 9 15 - - 0.0
18/03:00pm 21.5 16.2 1.7 27 9.2 ESE 19 28 10 15 - - 0.0
18/02:30pm 21.2 16.3 2.0 28 8.9 E 17 28 9 15 - - 0.0
18/02:00pm 21.1 16.3 2.4 29 8.8 ESE 17 30 9 16 - - 0.0
18/01:30pm 21.0 17.0 2.8 30 8.6 ESE 13 19 7 10 - - 0.0
18/01:00pm 21.0 16.4 3.7 32 8.3 E 17 28 9 15 - - 0.0
18/12:30pm 20.5 15.8 3.3 32 8.2 ESE 17 26 9 14 - - 0.0
18/12:00pm 19.5 14.5 3.6 35 7.5 ESE 19 28 10 15 - - 0.0
18/11:30am 19.1 14.3 4.5 38 7.0 ESE 19 28 10 15 - - 0.0
18/11:00am 18.3 13.5 4.8 41 6.5 E 19 32 10 17 - - 0.0
18/10:30am 18.2 13.3 5.1 42 6.3 E 20 32 11 17 - - 0.0
18/10:00am 17.6 13.4 5.5 45 5.9 E 17 26 9 14 - - 0.0
18/09:30am 17.0 12.3 5.9 48 5.4 ESE 20 32 11 17 - - 0.0
18/09:00am 16.3 12.6 6.4 52 4.8 E 15 24 8 13 - - 0.0
18/08:30am 15.5 12.6 6.5 55 4.4 E 11 17 6 9 - - 0.0
18/08:00am 14.1 12.0 6.7 61 3.6 ESE 7 13 4 7 - - 0.0
18/07:30am 11.7 9.5 6.2 69 2.6 E 7 9 4 5 - - 0.0
18/07:00am 9.6 7.2 5.2 74 2.0 ESE 7 7 4 4 - - 0.0
18/06:30am 9.8 7.4 5.4 74 2.0 ESE 7 9 4 5 - - 0.0
18/06:00am 9.9 7.6 5.5 74 2.0 E 7 9 4 5 - - 0.0
18/05:30am 10.6 8.4 6.0 73 2.1 E 7 9 4 5 - - 0.0
18/05:00am 10.4 8.3 5.8 73 2.1 E 6 7 3 4 - - 0.0
18/04:30am 10.7 8.5 6.1 73 2.1 E 7 9 4 5 - - 0.0
18/04:00am 11.0 8.8 6.2 72 2.2 E 7 9 4 5 - - 0.0
18/03:30am 11.0 8.8 6.4 73 2.2 ESE 7 9 4 5 - - 0.0
18/03:00am 11.2 9.2 6.1 71 2.4 ESE 6 9 3 5 - - 0.0
18/02:30am 11.3 9.3 6.2 71 2.4 ESE 6 7 3 4 - - 0.0
18/02:00am 11.9 9.7 6.4 69 2.6 ESE 7 9 4 5 - - 0.0
18/01:30am 12.4 10.3 6.5 67 2.8 E 7 9 4 5 - - 0.0
18/01:00am 12.7 10.8 6.7 67 2.9 SE 6 7 3 4 - - 0.0
18/12:30am 12.9 10.8 6.5 65 3.1 SSE 7 9 4 5 - - 0.0
18/12:00am 13.8 11.7 6.7 62 3.4 SSE 7 11 4 6 - - 0.0
 
Date/Time
CST
Temp
°C
App
Temp
°C
Dew
Point
°C
Rel
Hum
%
Delta-T
°C
Wind Press
QNH
hPa
Press
MSL
hPa
Rain since
9am
mm
Dir  Spd
km/h
Gust
km/h
Spd
kts
Gust
kts
17/11:30pm 14.4 12.0 7.0 61 3.6 SSE 9 13 5 7 - - 0.0
17/11:00pm 15.1 12.4 7.4 60 3.8 S 11 17 6 9 - - 0.0
17/10:30pm 15.3 12.7 7.6 60 3.8 S 11 17 6 9 - - 0.0
17/10:00pm 15.9 13.8 8.2 60 3.9 SSW 9 15 5 8 - - 0.0
17/09:30pm 16.5 14.6 9.0 61 3.9 SSW 9 15 5 8 - - 0.0
17/09:00pm 17.0 14.4 9.4 61 4.0 S 13 20 7 11 - - 0.0
17/08:30pm 17.4 15.3 9.8 61 4.0 S 11 19 6 10 - - 0.0
17/08:00pm 17.6 14.9 10.2 62 3.9 S 15 28 8 15 - - 0.0
17/07:30pm 18.2 14.7 10.8 62 4.0 S 20 30 11 16 - - 0.0
17/07:00pm 18.7 16.8 11.8 64 3.8 S 13 19 7 10 - - 0.0
17/06:30pm 19.3 17.9 12.1 63 4.0 SW 11 19 6 10 - - 0.0
17/06:00pm 19.4 17.7 13.6 69 3.3 WSW 15 24 8 13 - - 0.0
17/05:30pm 19.7 18.0 12.5 63 4.0 SW 13 22 7 12 - - 0.0
17/05:00pm 19.8 19.1 14.2 70 3.2 SW 11 19 6 10 - - 0.0
17/04:30pm 20.4 20.3 15.0 71 3.2 SW 9 20 5 11 - - 0.0
17/04:00pm 20.7 19.4 14.8 69 3.5 WSW 15 24 8 13 - - 0.0
17/03:30pm 21.4 19.1 14.1 63 4.3 WSW 19 32 10 17 - - 0.0
17/03:00pm 21.4 20.3 14.3 64 4.2 WSW 13 20 7 11 - - 0.0
17/02:30pm 22.0 20.6 14.6 63 4.4 WSW 15 24 8 13 - - 0.0
17/02:00pm 21.7 21.4 16.4 72 3.2 W 13 17 7 9 - - 0.0
17/01:30pm 21.8 21.8 15.2 66 3.9 WSW 9 15 5 8 - - 0.0
17/01:00pm 22.2 22.0 14.6 62 4.5 W 9 15 5 8 - - 0.0
17/12:30pm 22.3 22.5 14.7 62 4.5 WSW 7 13 4 7 - - 0.0
17/12:00pm 22.5 21.0 14.1 59 4.9 WSW 15 22 8 12 - - 0.0
17/11:30am 22.1 21.3 15.2 65 4.1 WSW 13 17 7 9 - - 0.0
17/11:00am 22.4 22.1 15.5 65 4.1 WNW 11 17 6 9 - - 0.0
17/10:30am 22.6 22.1 13.9 58 5.1 N 9 13 5 7 - - 0.0
17/10:00am 22.0 22.5 15.1 65 4.1 NW 6 9 3 5 - - 0.0
17/09:30am 22.1 23.0 15.2 65 4.1 W 4 6 2 3 - - 0.0
17/09:00am 22.5 22.4 14.9 62 4.5 W 9 13 5 7 - - -
17/08:30am 25.2 21.5 11.4 42 7.8 NNW 22 33 12 18 - - -
17/08:00am 25.3 21.0 7.9 33 9.3 N 20 32 11 17 - - -
17/07:30am 25.2 20.9 7.8 33 9.3 N 20 32 11 17 - - -
17/07:00am 24.7 21.0 7.8 34 9.0 N 17 22 9 12 - - -
17/06:30am 23.5 20.5 9.1 40 7.8 NNE 15 20 8 11 - - -
17/06:00am 25.1 21.0 6.3 30 9.7 N 17 24 9 13 - - -
17/05:30am 26.3 21.2 4.1 24 11.1 N 20 35 11 19 - - -
17/05:00am 26.9 21.0 4.0 23 11.5 N 24 37 13 20 - - -
17/04:30am 26.4 22.7 4.2 24 11.2 NNW 13 22 7 12 - - -
17/04:00am 27.7 21.1 2.0 19 12.5 N 26 41 14 22 - - -
17/03:30am 28.0 20.7 2.2 19 12.7 NNE 30 43 16 23 - - -
17/03:03am 28.3 20.9 1.7 18 13.0 N 30 48 16 26 - - -
17/03:00am 28.3 20.9 1.7 18 13.0 NNE 30 43 16 23 - - -
17/02:30am 28.5 21.1 1.9 18 13.0 N 30 44 16 24 - - -
17/02:00am 28.9 21.4 1.4 17 13.4 N 30 52 16 28 - - -
17/01:30am 29.4 20.9 1.0 16 13.8 NNE 35 57 19 31 - - -
17/01:15am 29.5 22.0 1.1 16 13.8 N 30 50 16 27 - - -
17/01:00am 29.4 22.2 1.0 16 13.8 N 28 43 15 23 - - -
17/12:47am 29.4 22.2 1.0 16 13.8 NNE 28 46 15 25 - - -
17/12:30am 28.8 23.0 2.1 18 13.1 NNE 22 37 12 20 - - 0.0
17/12:00am 28.8 22.2 2.1 18 13.1 NNE 26 37 14 20 - - 0.0
 
Date/Time
CST
Temp
°C
App
Temp
°C
Dew
Point
°C
Rel
Hum
%
Delta-T
°C
Wind Press
QNH
hPa
Press
MSL
hPa
Rain since
9am
mm
Dir  Spd
km/h
Gust
km/h
Spd
kts
Gust
kts
16/11:30pm 28.9 22.7 2.2 18 13.2 NNE 24 39 13 21 - - 0.0
16/11:00pm 28.9 23.1 2.2 18 13.2 NNE 22 33 12 18 - - 0.0
16/10:30pm 29.4 23.7 2.6 18 13.4 NNE 22 33 12 18 - - 0.0
16/10:00pm 29.7 24.0 2.9 18 13.5 NNE 22 33 12 18 - - 0.0
16/09:30pm 29.3 24.1 3.3 19 13.1 NNE 20 32 11 17 - - 0.0
16/09:00pm 29.4 24.5 4.1 20 12.9 NNE 19 28 10 15 - - 0.0
16/08:30pm 29.8 24.8 3.7 19 13.3 NNE 19 30 10 16 - - 0.0
16/08:00pm 29.7 24.9 4.4 20 13.0 NNE 19 26 10 14 - - 0.0
16/07:30pm 29.9 26.2 4.5 20 13.1 NNE 13 20 7 11 - - 0.0
16/07:00pm 30.8 25.4 4.5 19 13.7 N 22 32 12 17 - - 0.0
16/06:30pm 30.7 25.3 4.4 19 13.6 N 22 32 12 17 - - 0.0
16/06:00pm 30.4 25.5 4.9 20 13.3 N 20 28 11 15 - - 0.0
16/05:30pm 30.8 25.0 4.5 19 13.7 N 24 35 13 19 - - 0.0
16/05:00pm 31.6 25.6 3.6 17 14.4 N 24 35 13 19 - - 0.0

Latest Capital City Observations: Canberra | Sydney | Melbourne | Brisbane | Adelaide | Perth | Hobart | Darwin

Other formats

Comma delimited format used in spreadsheet applications
http://www.bom.gov.au/fwo/IDS60901/IDS60901.94808.axf

JavaScript Object Notation format (JSON) in row-major order
http://www.bom.gov.au/fwo/IDS60901/IDS60901.94808.json

Data quality

Most of these data are generated automatically and are frequently updated. Quality checks on data are not normally performed. It is possible for incorrect values to appear. Refer to information at About Latest Weather Observations and please check the disclaimer before using these data.